sensor_id;sensor_type;location;lat;lon;timestamp;P1;durP1;ratioP1;P2;durP2;ratioP2
65187;SDS011;51775;51.148;6.950;2023-03-03T00:00:32;6.65;;;4.80;;
65187;SDS011;51775;51.148;6.950;2023-03-03T00:02:57;6.82;;;4.80;;
65187;SDS011;51775;51.148;6.950;2023-03-03T00:05:28;7.07;;;4.53;;
65187;SDS011;51775;51.148;6.950;2023-03-03T00:07:56;7.00;;;4.78;;
65187;SDS011;51775;51.148;6.950;2023-03-03T00:10:21;6.95;;;4.95;;
65187;SDS011;51775;51.148;6.950;2023-03-03T00:12:47;7.20;;;4.82;;
65187;SDS011;51775;51.148;6.950;2023-03-03T00:15:17;6.53;;;4.60;;
65187;SDS011;51775;51.148;6.950;2023-03-03T00:17:44;6.85;;;4.65;;
65187;SDS011;51775;51.148;6.950;2023-03-03T00:23:25;7.22;;;4.82;;
65187;SDS011;51775;51.148;6.950;2023-03-03T00:26:17;6.13;;;4.13;;
65187;SDS011;51775;51.148;6.950;2023-03-03T00:28:48;5.70;;;4.05;;
65187;SDS011;51775;51.148;6.950;2023-03-03T00:31:16;4.88;;;3.40;;
65187;SDS011;51775;51.148;6.950;2023-03-03T00:33:48;7.05;;;3.85;;
65187;SDS011;51775;51.148;6.950;2023-03-03T00:39:09;5.30;;;3.45;;
65187;SDS011;51775;51.148;6.950;2023-03-03T00:41:43;5.13;;;3.53;;
65187;SDS011;51775;51.148;6.950;2023-03-03T00:46:48;4.28;;;3.17;;
65187;SDS011;51775;51.148;6.950;2023-03-03T00:49:18;5.93;;;3.40;;
65187;SDS011;51775;51.148;6.950;2023-03-03T00:51:48;4.13;;;2.90;;
65187;SDS011;51775;51.148;6.950;2023-03-03T00:54:13;4.70;;;3.33;;
65187;SDS011;51775;51.148;6.950;2023-03-03T00:56:38;4.80;;;3.10;;
65187;SDS011;51775;51.148;6.950;2023-03-03T00:59:03;4.50;;;3.40;;
65187;SDS011;51775;51.148;6.950;2023-03-03T01:01:29;5.80;;;3.53;;
65187;SDS011;51775;51.148;6.950;2023-03-03T01:03:54;4.35;;;3.20;;
65187;SDS011;51775;51.148;6.950;2023-03-03T01:06:19;4.22;;;2.90;;
65187;SDS011;51775;51.148;6.950;2023-03-03T01:08:44;5.55;;;3.22;;
65187;SDS011;51775;51.148;6.950;2023-03-03T01:13:35;4.30;;;3.10;;
65187;SDS011;51775;51.148;6.950;2023-03-03T01:16:01;4.70;;;3.40;;
65187;SDS011;51775;51.148;6.950;2023-03-03T01:18:29;4.50;;;3.30;;
65187;SDS011;51775;51.148;6.950;2023-03-03T01:20:55;4.25;;;2.90;;
65187;SDS011;51775;51.148;6.950;2023-03-03T01:23:20;4.43;;;3.22;;
65187;SDS011;51775;51.148;6.950;2023-03-03T01:25:46;7.45;;;4.80;;
65187;SDS011;51775;51.148;6.950;2023-03-03T01:28:11;7.35;;;4.78;;
65187;SDS011;51775;51.148;6.950;2023-03-03T01:30:36;7.00;;;4.70;;
65187;SDS011;51775;51.148;6.950;2023-03-03T01:33:02;7.80;;;5.00;;
65187;SDS011;51775;51.148;6.950;2023-03-03T01:35:27;6.95;;;4.65;;
65187;SDS011;51775;51.148;6.950;2023-03-03T01:37:53;7.22;;;4.68;;
65187;SDS011;51775;51.148;6.950;2023-03-03T01:40:23;7.40;;;4.95;;
65187;SDS011;51775;51.148;6.950;2023-03-03T01:42:50;7.28;;;5.00;;
65187;SDS011;51775;51.148;6.950;2023-03-03T01:45:20;7.32;;;5.05;;
65187;SDS011;51775;51.148;6.950;2023-03-03T01:47:58;6.90;;;4.68;;
65187;SDS011;51775;51.148;6.950;2023-03-03T01:50:29;8.07;;;5.07;;
65187;SDS011;51775;51.148;6.950;2023-03-03T01:53:03;7.63;;;4.85;;
65187;SDS011;51775;51.148;6.950;2023-03-03T01:55:34;6.90;;;4.63;;
65187;SDS011;51775;51.148;6.950;2023-03-03T01:58:05;7.97;;;4.88;;
65187;SDS011;51775;51.148;6.950;2023-03-03T02:00:37;7.18;;;4.85;;
65187;SDS011;51775;51.148;6.950;2023-03-03T02:03:04;6.07;;;4.10;;
65187;SDS011;51775;51.148;6.950;2023-03-03T02:05:30;6.65;;;4.40;;
65187;SDS011;51775;51.148;6.950;2023-03-03T02:07:56;6.70;;;4.40;;
65187;SDS011;51775;51.148;6.950;2023-03-03T02:10:21;6.53;;;4.40;;
65187;SDS011;51775;51.148;6.950;2023-03-03T02:15:20;7.25;;;4.60;;
65187;SDS011;51775;51.148;6.950;2023-03-03T02:17:54;7.13;;;4.65;;
65187;SDS011;51775;51.148;6.950;2023-03-03T02:20:28;7.45;;;4.95;;
65187;SDS011;51775;51.148;6.950;2023-03-03T02:23:21;7.68;;;4.75;;
65187;SDS011;51775;51.148;6.950;2023-03-03T02:28:24;7.40;;;4.63;;
65187;SDS011;51775;51.148;6.950;2023-03-03T02:30:53;7.93;;;4.68;;
65187;SDS011;51775;51.148;6.950;2023-03-03T02:33:19;7.18;;;4.53;;
65187;SDS011;51775;51.148;6.950;2023-03-03T02:35:45;8.45;;;5.03;;
65187;SDS011;51775;51.148;6.950;2023-03-03T02:38:13;6.50;;;4.30;;
65187;SDS011;51775;51.148;6.950;2023-03-03T02:40:43;6.95;;;4.55;;
65187;SDS011;51775;51.148;6.950;2023-03-03T02:43:17;6.72;;;4.32;;
65187;SDS011;51775;51.148;6.950;2023-03-03T02:45:44;7.70;;;4.75;;
65187;SDS011;51775;51.148;6.950;2023-03-03T02:48:09;7.35;;;4.50;;
65187;SDS011;51775;51.148;6.950;2023-03-03T02:50:35;6.65;;;4.60;;
65187;SDS011;51775;51.148;6.950;2023-03-03T02:53:00;6.13;;;4.10;;
65187;SDS011;51775;51.148;6.950;2023-03-03T02:55:26;6.88;;;4.40;;
65187;SDS011;51775;51.148;6.950;2023-03-03T02:57:51;6.53;;;4.43;;
65187;SDS011;51775;51.148;6.950;2023-03-03T03:00:16;7.32;;;4.63;;
65187;SDS011;51775;51.148;6.950;2023-03-03T03:02:42;6.70;;;4.45;;
65187;SDS011;51775;51.148;6.950;2023-03-03T03:05:08;6.55;;;4.40;;
65187;SDS011;51775;51.148;6.950;2023-03-03T03:07:33;5.82;;;4.20;;
65187;SDS011;51775;51.148;6.950;2023-03-03T03:09:59;6.43;;;4.25;;
65187;SDS011;51775;51.148;6.950;2023-03-03T03:12:24;6.32;;;4.18;;
65187;SDS011;51775;51.148;6.950;2023-03-03T03:14:49;7.00;;;4.28;;
65187;SDS011;51775;51.148;6.950;2023-03-03T03:17:14;6.63;;;4.20;;
65187;SDS011;51775;51.148;6.950;2023-03-03T03:19:40;7.53;;;4.68;;
65187;SDS011;51775;51.148;6.950;2023-03-03T03:22:05;7.07;;;4.40;;
65187;SDS011;51775;51.148;6.950;2023-03-03T03:24:30;6.95;;;4.32;;
65187;SDS011;51775;51.148;6.950;2023-03-03T03:26:56;6.95;;;4.30;;
65187;SDS011;51775;51.148;6.950;2023-03-03T03:29:21;6.22;;;4.13;;
65187;SDS011;51775;51.148;6.950;2023-03-03T03:31:46;7.38;;;4.70;;
65187;SDS011;51775;51.148;6.950;2023-03-03T03:34:11;6.55;;;4.50;;
65187;SDS011;51775;51.148;6.950;2023-03-03T03:36:37;6.50;;;4.47;;
65187;SDS011;51775;51.148;6.950;2023-03-03T03:39:02;7.18;;;4.78;;
65187;SDS011;51775;51.148;6.950;2023-03-03T03:41:27;7.47;;;4.72;;
65187;SDS011;51775;51.148;6.950;2023-03-03T03:43:53;6.35;;;4.30;;
65187;SDS011;51775;51.148;6.950;2023-03-03T03:46:18;7.25;;;4.60;;
65187;SDS011;51775;51.148;6.950;2023-03-03T03:48:43;6.35;;;4.15;;
65187;SDS011;51775;51.148;6.950;2023-03-03T03:51:10;6.85;;;4.47;;
65187;SDS011;51775;51.148;6.950;2023-03-03T03:53:35;7.50;;;4.78;;
65187;SDS011;51775;51.148;6.950;2023-03-03T03:56:00;6.20;;;4.20;;
65187;SDS011;51775;51.148;6.950;2023-03-03T03:58:26;5.85;;;3.97;;
65187;SDS011;51775;51.148;6.950;2023-03-03T04:00:51;6.57;;;4.53;;
65187;SDS011;51775;51.148;6.950;2023-03-03T04:03:16;6.10;;;4.13;;
65187;SDS011;51775;51.148;6.950;2023-03-03T04:05:42;7.28;;;4.47;;
65187;SDS011;51775;51.148;6.950;2023-03-03T04:08:07;7.28;;;4.40;;
65187;SDS011;51775;51.148;6.950;2023-03-03T04:10:33;6.88;;;4.30;;
65187;SDS011;51775;51.148;6.950;2023-03-03T04:12:59;6.03;;;4.07;;
65187;SDS011;51775;51.148;6.950;2023-03-03T04:15:24;6.32;;;4.20;;
65187;SDS011;51775;51.148;6.950;2023-03-03T04:17:49;5.65;;;3.92;;
65187;SDS011;51775;51.148;6.950;2023-03-03T04:20:15;5.70;;;3.58;;
65187;SDS011;51775;51.148;6.950;2023-03-03T04:22:41;7.97;;;4.97;;
65187;SDS011;51775;51.148;6.950;2023-03-03T04:25:07;7.35;;;4.30;;
65187;SDS011;51775;51.148;6.950;2023-03-03T04:27:33;6.10;;;4.10;;
65187;SDS011;51775;51.148;6.950;2023-03-03T04:30:00;6.20;;;3.85;;
65187;SDS011;51775;51.148;6.950;2023-03-03T04:32:26;6.93;;;4.00;;
65187;SDS011;51775;51.148;6.950;2023-03-03T04:34:52;6.07;;;4.13;;
65187;SDS011;51775;51.148;6.950;2023-03-03T04:37:17;6.15;;;3.97;;
65187;SDS011;51775;51.148;6.950;2023-03-03T04:39:43;5.70;;;3.88;;
65187;SDS011;51775;51.148;6.950;2023-03-03T04:42:08;6.20;;;3.88;;
65187;SDS011;51775;51.148;6.950;2023-03-03T04:44:33;6.30;;;3.97;;
65187;SDS011;51775;51.148;6.950;2023-03-03T04:46:58;6.45;;;3.92;;
65187;SDS011;51775;51.148;6.950;2023-03-03T04:49:24;6.38;;;3.92;;
65187;SDS011;51775;51.148;6.950;2023-03-03T04:51:49;6.68;;;4.20;;
65187;SDS011;51775;51.148;6.950;2023-03-03T04:54:14;5.88;;;3.70;;
65187;SDS011;51775;51.148;6.950;2023-03-03T04:56:40;6.05;;;4.03;;
65187;SDS011;51775;51.148;6.950;2023-03-03T04:59:05;5.68;;;3.67;;
65187;SDS011;51775;51.148;6.950;2023-03-03T05:01:30;5.25;;;3.53;;
65187;SDS011;51775;51.148;6.950;2023-03-03T05:03:55;5.53;;;3.58;;
65187;SDS011;51775;51.148;6.950;2023-03-03T05:06:21;6.35;;;4.10;;
65187;SDS011;51775;51.148;6.950;2023-03-03T05:08:46;6.50;;;3.95;;
65187;SDS011;51775;51.148;6.950;2023-03-03T05:11:11;6.38;;;3.97;;
65187;SDS011;51775;51.148;6.950;2023-03-03T05:13:37;5.72;;;3.85;;
65187;SDS011;51775;51.148;6.950;2023-03-03T05:16:02;6.68;;;4.10;;
65187;SDS011;51775;51.148;6.950;2023-03-03T05:18:28;6.72;;;4.25;;
65187;SDS011;51775;51.148;6.950;2023-03-03T05:20:53;6.35;;;4.10;;
65187;SDS011;51775;51.148;6.950;2023-03-03T05:23:19;6.35;;;3.88;;
65187;SDS011;51775;51.148;6.950;2023-03-03T05:25:45;5.53;;;3.63;;
65187;SDS011;51775;51.148;6.950;2023-03-03T05:28:11;6.05;;;3.70;;
65187;SDS011;51775;51.148;6.950;2023-03-03T05:30:36;6.60;;;4.10;;
65187;SDS011;51775;51.148;6.950;2023-03-03T05:33:02;6.50;;;4.00;;
65187;SDS011;51775;51.148;6.950;2023-03-03T05:35:29;5.80;;;3.90;;
65187;SDS011;51775;51.148;6.950;2023-03-03T05:37:54;5.65;;;3.72;;
65187;SDS011;51775;51.148;6.950;2023-03-03T05:40:20;5.65;;;3.30;;
65187;SDS011;51775;51.148;6.950;2023-03-03T05:42:45;6.55;;;3.97;;
65187;SDS011;51775;51.148;6.950;2023-03-03T05:45:11;6.28;;;3.83;;
65187;SDS011;51775;51.148;6.950;2023-03-03T05:47:36;6.18;;;3.97;;
65187;SDS011;51775;51.148;6.950;2023-03-03T05:50:02;6.25;;;3.78;;
65187;SDS011;51775;51.148;6.950;2023-03-03T05:52:28;5.78;;;3.33;;
65187;SDS011;51775;51.148;6.950;2023-03-03T05:54:53;5.60;;;3.65;;
65187;SDS011;51775;51.148;6.950;2023-03-03T05:57:18;6.38;;;3.83;;
65187;SDS011;51775;51.148;6.950;2023-03-03T05:59:44;6.38;;;3.97;;
65187;SDS011;51775;51.148;6.950;2023-03-03T06:02:09;6.03;;;4.00;;
65187;SDS011;51775;51.148;6.950;2023-03-03T06:04:34;5.75;;;3.65;;
65187;SDS011;51775;51.148;6.950;2023-03-03T06:07:00;6.13;;;3.88;;
65187;SDS011;51775;51.148;6.950;2023-03-03T06:09:25;5.78;;;3.45;;
65187;SDS011;51775;51.148;6.950;2023-03-03T06:11:51;5.13;;;3.67;;
65187;SDS011;51775;51.148;6.950;2023-03-03T06:14:16;5.78;;;4.03;;
65187;SDS011;51775;51.148;6.950;2023-03-03T06:16:42;6.50;;;3.97;;
65187;SDS011;51775;51.148;6.950;2023-03-03T06:19:07;6.32;;;3.88;;
65187;SDS011;51775;51.148;6.950;2023-03-03T06:21:32;5.60;;;3.60;;
65187;SDS011;51775;51.148;6.950;2023-03-03T06:23:58;5.95;;;3.60;;
65187;SDS011;51775;51.148;6.950;2023-03-03T06:26:23;6.05;;;3.88;;
65187;SDS011;51775;51.148;6.950;2023-03-03T06:28:48;5.40;;;3.30;;
65187;SDS011;51775;51.148;6.950;2023-03-03T06:31:13;6.03;;;3.78;;
65187;SDS011;51775;51.148;6.950;2023-03-03T06:33:39;5.45;;;3.28;;
65187;SDS011;51775;51.148;6.950;2023-03-03T06:36:04;5.57;;;3.50;;
65187;SDS011;51775;51.148;6.950;2023-03-03T06:38:29;6.18;;;3.80;;
65187;SDS011;51775;51.148;6.950;2023-03-03T06:40:55;7.30;;;3.80;;
65187;SDS011;51775;51.148;6.950;2023-03-03T06:43:20;5.68;;;3.67;;
65187;SDS011;51775;51.148;6.950;2023-03-03T06:45:45;5.57;;;3.50;;
65187;SDS011;51775;51.148;6.950;2023-03-03T06:48:10;6.28;;;3.90;;
65187;SDS011;51775;51.148;6.950;2023-03-03T06:50:36;6.28;;;3.67;;
65187;SDS011;51775;51.148;6.950;2023-03-03T06:53:11;6.40;;;3.75;;
65187;SDS011;51775;51.148;6.950;2023-03-03T06:55:38;6.93;;;4.18;;
65187;SDS011;51775;51.148;6.950;2023-03-03T06:58:14;6.38;;;3.55;;
65187;SDS011;51775;51.148;6.950;2023-03-03T07:00:44;6.60;;;3.92;;
65187;SDS011;51775;51.148;6.950;2023-03-03T07:03:18;5.82;;;3.80;;
65187;SDS011;51775;51.148;6.950;2023-03-03T07:05:47;6.65;;;4.13;;
65187;SDS011;51775;51.148;6.950;2023-03-03T07:08:17;6.75;;;4.03;;
65187;SDS011;51775;51.148;6.950;2023-03-03T07:10:44;6.88;;;4.07;;
65187;SDS011;51775;51.148;6.950;2023-03-03T07:15:53;6.88;;;4.20;;
65187;SDS011;51775;51.148;6.950;2023-03-03T07:18:33;6.03;;;3.63;;
65187;SDS011;51775;51.148;6.950;2023-03-03T07:21:19;5.65;;;3.70;;
65187;SDS011;51775;51.148;6.950;2023-03-03T07:23:58;6.15;;;3.78;;
65187;SDS011;51775;51.148;6.950;2023-03-03T07:26:26;6.38;;;3.65;;
65187;SDS011;51775;51.148;6.950;2023-03-03T07:28:54;6.82;;;4.38;;
65187;SDS011;51775;51.148;6.950;2023-03-03T07:31:39;6.97;;;3.93;;
65187;SDS011;51775;51.148;6.950;2023-03-03T07:34:29;6.05;;;3.60;;
65187;SDS011;51775;51.148;6.950;2023-03-03T07:36:54;6.03;;;4.00;;
65187;SDS011;51775;51.148;6.950;2023-03-03T07:39:35;6.93;;;4.22;;
65187;SDS011;51775;51.148;6.950;2023-03-03T07:44:33;7.28;;;4.32;;
65187;SDS011;51775;51.148;6.950;2023-03-03T07:47:46;5.97;;;3.67;;
65187;SDS011;51775;51.148;6.950;2023-03-03T07:49:48;6.63;;;4.18;;
65187;SDS011;51775;51.148;6.950;2023-03-03T07:52:49;7.13;;;4.20;;
65187;SDS011;51775;51.148;6.950;2023-03-03T07:57:55;7.45;;;4.38;;
65187;SDS011;51775;51.148;6.950;2023-03-03T08:03:04;6.40;;;3.72;;
65187;SDS011;51775;51.148;6.950;2023-03-03T08:05:40;6.13;;;3.80;;
65187;SDS011;51775;51.148;6.950;2023-03-03T08:10:55;7.55;;;4.20;;
65187;SDS011;51775;51.148;6.950;2023-03-03T08:16:03;7.22;;;3.63;;
65187;SDS011;51775;51.148;6.950;2023-03-03T08:18:49;7.70;;;4.07;;
65187;SDS011;51775;51.148;6.950;2023-03-03T08:21:22;5.60;;;3.40;;
65187;SDS011;51775;51.148;6.950;2023-03-03T08:23:49;6.57;;;4.07;;
65187;SDS011;51775;51.148;6.950;2023-03-03T08:26:15;6.55;;;4.07;;
65187;SDS011;51775;51.148;6.950;2023-03-03T08:28:40;7.10;;;4.10;;
65187;SDS011;51775;51.148;6.950;2023-03-03T08:31:05;7.60;;;4.40;;
65187;SDS011;51775;51.148;6.950;2023-03-03T08:33:31;6.93;;;3.78;;
65187;SDS011;51775;51.148;6.950;2023-03-03T08:35:56;6.93;;;3.95;;
65187;SDS011;51775;51.148;6.950;2023-03-03T08:38:21;6.30;;;3.58;;
65187;SDS011;51775;51.148;6.950;2023-03-03T08:40:47;7.55;;;4.07;;
65187;SDS011;51775;51.148;6.950;2023-03-03T08:43:13;6.43;;;3.80;;
65187;SDS011;51775;51.148;6.950;2023-03-03T08:45:38;6.63;;;3.95;;
65187;SDS011;51775;51.148;6.950;2023-03-03T08:48:04;6.40;;;3.85;;
65187;SDS011;51775;51.148;6.950;2023-03-03T08:50:29;6.57;;;3.90;;
65187;SDS011;51775;51.148;6.950;2023-03-03T08:52:55;7.43;;;4.40;;
65187;SDS011;51775;51.148;6.950;2023-03-03T08:55:21;7.20;;;3.88;;
65187;SDS011;51775;51.148;6.950;2023-03-03T08:57:46;6.28;;;3.80;;
65187;SDS011;51775;51.148;6.950;2023-03-03T09:00:12;7.20;;;4.07;;
65187;SDS011;51775;51.148;6.950;2023-03-03T09:02:40;7.35;;;4.00;;
65187;SDS011;51775;51.148;6.950;2023-03-03T09:05:06;8.45;;;4.30;;
65187;SDS011;51775;51.148;6.950;2023-03-03T09:07:32;7.03;;;4.07;;
65187;SDS011;51775;51.148;6.950;2023-03-03T09:09:57;6.65;;;4.13;;
65187;SDS011;51775;51.148;6.950;2023-03-03T09:12:30;7.20;;;4.45;;
65187;SDS011;51775;51.148;6.950;2023-03-03T09:17:45;7.18;;;4.00;;
65187;SDS011;51775;51.148;6.950;2023-03-03T09:20:26;6.75;;;3.80;;
65187;SDS011;51775;51.148;6.950;2023-03-03T09:23:24;7.53;;;4.32;;
65187;SDS011;51775;51.148;6.950;2023-03-03T09:28:49;9.50;;;5.20;;
65187;SDS011;51775;51.148;6.950;2023-03-03T09:31:23;8.13;;;4.82;;
65187;SDS011;51775;51.148;6.950;2023-03-03T09:33:58;9.07;;;4.60;;
65187;SDS011;51775;51.148;6.950;2023-03-03T09:38:55;7.28;;;4.10;;
65187;SDS011;51775;51.148;6.950;2023-03-03T09:46:44;8.63;;;4.88;;
65187;SDS011;51775;51.148;6.950;2023-03-03T09:49:38;8.85;;;4.65;;
65187;SDS011;51775;51.148;6.950;2023-03-03T10:08:02;8.88;;;4.70;;
65187;SDS011;51775;51.148;6.950;2023-03-03T10:26:24;8.30;;;4.70;;
65187;SDS011;51775;51.148;6.950;2023-03-03T10:29:01;9.88;;;4.88;;
65187;SDS011;51775;51.148;6.950;2023-03-03T10:39:53;7.88;;;4.60;;
65187;SDS011;51775;51.148;6.950;2023-03-03T10:47:59;7.88;;;4.30;;
65187;SDS011;51775;51.148;6.950;2023-03-03T10:51:01;7.25;;;4.38;;
65187;SDS011;51775;51.148;6.950;2023-03-03T10:56:25;7.78;;;4.50;;
65187;SDS011;51775;51.148;6.950;2023-03-03T11:02:53;8.45;;;4.45;;
65187;SDS011;51775;51.148;6.950;2023-03-03T11:07:56;8.77;;;4.90;;
65187;SDS011;51775;51.148;6.950;2023-03-03T11:10:36;7.65;;;4.40;;
65187;SDS011;51775;51.148;6.950;2023-03-03T11:13:18;8.27;;;4.53;;
65187;SDS011;51775;51.148;6.950;2023-03-03T11:15:58;7.68;;;4.60;;
65187;SDS011;51775;51.148;6.950;2023-03-03T11:18:31;7.53;;;4.55;;
65187;SDS011;51775;51.148;6.950;2023-03-03T11:26:08;8.25;;;4.70;;
65187;SDS011;51775;51.148;6.950;2023-03-03T11:37:07;8.98;;;4.68;;
65187;SDS011;51775;51.148;6.950;2023-03-03T11:39:38;7.75;;;4.20;;
65187;SDS011;51775;51.148;6.950;2023-03-03T11:44:44;7.60;;;4.38;;
65187;SDS011;51775;51.148;6.950;2023-03-03T11:47:26;9.55;;;4.72;;
65187;SDS011;51775;51.148;6.950;2023-03-03T11:50:17;9.63;;;5.50;;
65187;SDS011;51775;51.148;6.950;2023-03-03T11:58:24;8.00;;;4.50;;
65187;SDS011;51775;51.148;6.950;2023-03-03T12:01:04;7.90;;;4.50;;
65187;SDS011;51775;51.148;6.950;2023-03-03T12:04:17;8.02;;;4.63;;
65187;SDS011;51775;51.148;6.950;2023-03-03T12:07:02;8.50;;;4.88;;
65187;SDS011;51775;51.148;6.950;2023-03-03T12:09:39;10.23;;;5.40;;
65187;SDS011;51775;51.148;6.950;2023-03-03T12:12:13;10.25;;;5.03;;
65187;SDS011;51775;51.148;6.950;2023-03-03T12:14:58;9.52;;;5.38;;
65187;SDS011;51775;51.148;6.950;2023-03-03T12:29:11;9.63;;;4.78;;
65187;SDS011;51775;51.148;6.950;2023-03-03T12:33:58;9.30;;;5.07;;
65187;SDS011;51775;51.148;6.950;2023-03-03T12:39:29;10.13;;;5.47;;
65187;SDS011;51775;51.148;6.950;2023-03-03T12:47:49;9.40;;;5.10;;
65187;SDS011;51775;51.148;6.950;2023-03-03T12:53:04;10.30;;;5.43;;
65187;SDS011;51775;51.148;6.950;2023-03-03T13:05:02;9.80;;;5.25;;
65187;SDS011;51775;51.148;6.950;2023-03-03T13:07:56;9.98;;;5.22;;
65187;SDS011;51775;51.148;6.950;2023-03-03T13:13:10;11.10;;;5.40;;
65187;SDS011;51775;51.148;6.950;2023-03-03T13:18:38;10.48;;;5.55;;
65187;SDS011;51775;51.148;6.950;2023-03-03T13:21:16;10.80;;;5.20;;
65187;SDS011;51775;51.148;6.950;2023-03-03T13:23:50;11.13;;;5.07;;
65187;SDS011;51775;51.148;6.950;2023-03-03T13:26:21;11.25;;;5.72;;
65187;SDS011;51775;51.148;6.950;2023-03-03T13:32:02;10.80;;;5.53;;
65187;SDS011;51775;51.148;6.950;2023-03-03T13:37:37;10.02;;;5.32;;
65187;SDS011;51775;51.148;6.950;2023-03-03T13:40:18;10.45;;;5.80;;
65187;SDS011;51775;51.148;6.950;2023-03-03T13:43:01;12.18;;;4.93;;
65187;SDS011;51775;51.148;6.950;2023-03-03T13:50:46;8.40;;;4.53;;
65187;SDS011;51775;51.148;6.950;2023-03-03T13:58:51;9.35;;;4.93;;
65187;SDS011;51775;51.148;6.950;2023-03-03T14:06:57;9.38;;;5.38;;
65187;SDS011;51775;51.148;6.950;2023-03-03T14:12:56;11.15;;;5.80;;
65187;SDS011;51775;51.148;6.950;2023-03-03T14:26:11;11.18;;;5.45;;
65187;SDS011;51775;51.148;6.950;2023-03-03T14:28:47;10.68;;;5.03;;
65187;SDS011;51775;51.148;6.950;2023-03-03T14:31:14;8.77;;;4.78;;
65187;SDS011;51775;51.148;6.950;2023-03-03T14:33:45;9.43;;;5.43;;
65187;SDS011;51775;51.148;6.950;2023-03-03T14:36:30;9.10;;;5.47;;
65187;SDS011;51775;51.148;6.950;2023-03-03T14:38:57;11.60;;;5.35;;
65187;SDS011;51775;51.148;6.950;2023-03-03T14:41:40;9.52;;;5.03;;
65187;SDS011;51775;51.148;6.950;2023-03-03T14:47:02;11.55;;;5.50;;
65187;SDS011;51775;51.148;6.950;2023-03-03T14:49:40;9.38;;;5.50;;
65187;SDS011;51775;51.148;6.950;2023-03-03T14:54:41;9.27;;;4.97;;
65187;SDS011;51775;51.148;6.950;2023-03-03T14:57:12;9.70;;;5.20;;
65187;SDS011;51775;51.148;6.950;2023-03-03T15:02:27;9.27;;;5.00;;
65187;SDS011;51775;51.148;6.950;2023-03-03T15:07:45;9.15;;;4.85;;
65187;SDS011;51775;51.148;6.950;2023-03-03T15:10:12;8.63;;;4.95;;
65187;SDS011;51775;51.148;6.950;2023-03-03T15:12:51;11.23;;;5.80;;
65187;SDS011;51775;51.148;6.950;2023-03-03T15:15:18;10.88;;;5.80;;
65187;SDS011;51775;51.148;6.950;2023-03-03T15:33:31;11.10;;;5.95;;
65187;SDS011;51775;51.148;6.950;2023-03-03T15:36:23;11.02;;;5.65;;
65187;SDS011;51775;51.148;6.950;2023-03-03T15:42:06;10.60;;;5.57;;
65187;SDS011;51775;51.148;6.950;2023-03-03T15:44:46;10.55;;;5.90;;
65187;SDS011;51775;51.148;6.950;2023-03-03T15:52:44;11.73;;;5.70;;
65187;SDS011;51775;51.148;6.950;2023-03-03T16:06:46;10.65;;;5.65;;
65187;SDS011;51775;51.148;6.950;2023-03-03T16:09:15;11.43;;;5.60;;
65187;SDS011;51775;51.148;6.950;2023-03-03T16:18:26;10.93;;;5.72;;
65187;SDS011;51775;51.148;6.950;2023-03-03T16:20:54;10.85;;;6.07;;
65187;SDS011;51775;51.148;6.950;2023-03-03T16:26:07;13.50;;;6.57;;
65187;SDS011;51775;51.148;6.950;2023-03-03T16:31:23;10.38;;;5.82;;
65187;SDS011;51775;51.148;6.950;2023-03-03T16:36:51;11.35;;;5.35;;
65187;SDS011;51775;51.148;6.950;2023-03-03T16:42:20;10.68;;;5.30;;
65187;SDS011;51775;51.148;6.950;2023-03-03T17:04:00;10.93;;;4.85;;
65187;SDS011;51775;51.148;6.950;2023-03-03T17:11:56;7.55;;;4.03;;
65187;SDS011;51775;51.148;6.950;2023-03-03T17:14:52;9.00;;;4.53;;
65187;SDS011;51775;51.148;6.950;2023-03-03T17:20:47;9.63;;;4.90;;
65187;SDS011;51775;51.148;6.950;2023-03-03T17:25:57;10.10;;;4.50;;
65187;SDS011;51775;51.148;6.950;2023-03-03T17:31:33;9.27;;;4.80;;
65187;SDS011;51775;51.148;6.950;2023-03-03T17:53:12;8.35;;;4.68;;
65187;SDS011;51775;51.148;6.950;2023-03-03T17:58:35;9.13;;;4.78;;
65187;SDS011;51775;51.148;6.950;2023-03-03T18:09:15;8.27;;;4.38;;
65187;SDS011;51775;51.148;6.950;2023-03-03T18:12:11;8.27;;;5.03;;
65187;SDS011;51775;51.148;6.950;2023-03-03T18:18:16;9.55;;;5.10;;
65187;SDS011;51775;51.148;6.950;2023-03-03T18:25:53;13.00;;;5.40;;
65187;SDS011;51775;51.148;6.950;2023-03-03T18:28:21;8.80;;;4.80;;
65187;SDS011;51775;51.148;6.950;2023-03-03T18:30:52;8.27;;;4.72;;
65187;SDS011;51775;51.148;6.950;2023-03-03T18:38:52;10.05;;;4.95;;
65187;SDS011;51775;51.148;6.950;2023-03-03T18:41:24;10.10;;;5.30;;
65187;SDS011;51775;51.148;6.950;2023-03-03T18:43:52;9.63;;;6.03;;
65187;SDS011;51775;51.148;6.950;2023-03-03T18:48:50;8.27;;;4.97;;
65187;SDS011;51775;51.148;6.950;2023-03-03T18:53:59;7.78;;;5.10;;
65187;SDS011;51775;51.148;6.950;2023-03-03T19:01:54;9.13;;;5.35;;
65187;SDS011;51775;51.148;6.950;2023-03-03T19:04:32;10.90;;;5.20;;
65187;SDS011;51775;51.148;6.950;2023-03-03T19:12:09;10.67;;;5.30;;
65187;SDS011;51775;51.148;6.950;2023-03-03T19:14:37;9.23;;;4.80;;
65187;SDS011;51775;51.148;6.950;2023-03-03T19:22:41;9.32;;;4.93;;
65187;SDS011;51775;51.148;6.950;2023-03-03T19:27:42;14.07;;;6.57;;
65187;SDS011;51775;51.148;6.950;2023-03-03T19:38:29;9.88;;;5.70;;
65187;SDS011;51775;51.148;6.950;2023-03-03T19:49:27;9.32;;;4.97;;
65187;SDS011;51775;51.148;6.950;2023-03-03T19:52:25;8.55;;;4.97;;
65187;SDS011;51775;51.148;6.950;2023-03-03T19:55:32;10.15;;;5.40;;
65187;SDS011;51775;51.148;6.950;2023-03-03T20:14:43;9.65;;;5.00;;
65187;SDS011;51775;51.148;6.950;2023-03-03T20:17:23;8.10;;;4.80;;
65187;SDS011;51775;51.148;6.950;2023-03-03T20:31:01;9.23;;;4.90;;
65187;SDS011;51775;51.148;6.950;2023-03-03T20:37:17;9.90;;;5.53;;
65187;SDS011;51775;51.148;6.950;2023-03-03T20:47:51;10.27;;;5.97;;
65187;SDS011;51775;51.148;6.950;2023-03-03T20:50:50;10.43;;;6.10;;
65187;SDS011;51775;51.148;6.950;2023-03-03T20:56:44;14.77;;;8.40;;
65187;SDS011;51775;51.148;6.950;2023-03-03T20:59:33;13.75;;;7.50;;
65187;SDS011;51775;51.148;6.950;2023-03-03T21:04:42;12.35;;;7.28;;
65187;SDS011;51775;51.148;6.950;2023-03-03T21:07:07;12.25;;;6.85;;
65187;SDS011;51775;51.148;6.950;2023-03-03T21:09:33;13.80;;;7.30;;
65187;SDS011;51775;51.148;6.950;2023-03-03T21:12:02;11.43;;;6.47;;
65187;SDS011;51775;51.148;6.950;2023-03-03T21:14:34;11.00;;;7.03;;
65187;SDS011;51775;51.148;6.950;2023-03-03T21:17:00;9.88;;;5.60;;
65187;SDS011;51775;51.148;6.950;2023-03-03T21:19:48;10.43;;;6.10;;
65187;SDS011;51775;51.148;6.950;2023-03-03T21:22:13;11.25;;;6.70;;
65187;SDS011;51775;51.148;6.950;2023-03-03T21:24:48;10.07;;;5.78;;
65187;SDS011;51775;51.148;6.950;2023-03-03T21:32:46;11.68;;;6.57;;
65187;SDS011;51775;51.148;6.950;2023-03-03T21:37:51;11.70;;;6.50;;
65187;SDS011;51775;51.148;6.950;2023-03-03T21:42:52;8.82;;;5.57;;
65187;SDS011;51775;51.148;6.950;2023-03-03T21:45:19;11.65;;;6.63;;
65187;SDS011;51775;51.148;6.950;2023-03-03T21:47:45;10.40;;;6.00;;
65187;SDS011;51775;51.148;6.950;2023-03-03T21:50:11;11.02;;;6.30;;
65187;SDS011;51775;51.148;6.950;2023-03-03T21:52:37;12.70;;;6.90;;
65187;SDS011;51775;51.148;6.950;2023-03-03T21:55:02;11.13;;;6.03;;
65187;SDS011;51775;51.148;6.950;2023-03-03T21:57:28;10.85;;;6.22;;
65187;SDS011;51775;51.148;6.950;2023-03-03T21:59:53;9.98;;;6.10;;
65187;SDS011;51775;51.148;6.950;2023-03-03T22:02:18;10.95;;;6.63;;
65187;SDS011;51775;51.148;6.950;2023-03-03T22:04:44;11.63;;;6.45;;
65187;SDS011;51775;51.148;6.950;2023-03-03T22:07:09;11.27;;;6.20;;
65187;SDS011;51775;51.148;6.950;2023-03-03T22:09:35;11.10;;;6.22;;
65187;SDS011;51775;51.148;6.950;2023-03-03T22:12:00;10.55;;;5.97;;
65187;SDS011;51775;51.148;6.950;2023-03-03T22:14:25;11.20;;;6.63;;
65187;SDS011;51775;51.148;6.950;2023-03-03T22:16:51;10.88;;;6.25;;
65187;SDS011;51775;51.148;6.950;2023-03-03T22:19:16;11.80;;;6.20;;
65187;SDS011;51775;51.148;6.950;2023-03-03T22:21:42;11.43;;;6.75;;